createdAt,value
2022-09-17T00:01:59.765Z,98617.28
2022-09-17T00:04:30.209Z,98614.06
2022-09-17T00:07:00.344Z,98605.88
2022-09-17T00:09:31.525Z,98608.59
2022-09-17T00:12:03.205Z,98598.19
2022-09-17T00:14:33.016Z,98604.13
2022-09-17T00:17:02.812Z,98610.66
2022-09-17T00:19:32.561Z,98612.72
2022-09-17T00:22:02.856Z,98613.13
2022-09-17T00:24:32.860Z,98610.50
2022-09-17T00:27:04.289Z,98617.56
2022-09-17T00:29:34.534Z,98611.47
2022-09-17T00:32:04.405Z,98610.50
2022-09-17T00:34:34.502Z,98609.28
2022-09-17T00:37:04.572Z,98605.56
2022-09-17T00:39:34.443Z,98610.50
2022-09-17T00:42:10.680Z,98617.63
2022-09-17T00:44:48.249Z,98620.66
2022-09-17T00:47:24.660Z,98616.97
2022-09-17T00:49:59.501Z,98616.75
2022-09-17T00:52:35.483Z,98627.78
2022-09-17T00:55:13.043Z,98584.91
2022-09-17T00:57:45.978Z,98618.69
2022-09-17T01:00:17.844Z,98608.47
2022-09-17T01:02:48.360Z,98602.63
2022-09-17T01:05:18.855Z,98596.09
2022-09-17T01:08:02.486Z,98601.25
2022-09-17T01:10:44.395Z,98606.94
2022-09-17T01:13:27.652Z,98605.13
2022-09-17T01:16:04.461Z,98599.69
2022-09-17T01:18:49.559Z,98591.69
2022-09-17T01:21:57.924Z,98593.00
2022-09-17T01:25:00.383Z,98605.81
2022-09-17T01:27:58.830Z,98601.06
2022-09-17T01:31:13.754Z,98599.69
2022-09-17T01:33:48.839Z,98607.59
2022-09-17T01:36:26.497Z,98607.41
2022-09-17T01:39:07.495Z,98613.94
2022-09-17T01:41:44.838Z,98610.81
2022-09-17T01:44:23.107Z,98614.97
2022-09-17T01:46:57.740Z,98610.03
2022-09-17T01:49:31.767Z,98607.78
2022-09-17T01:52:03.099Z,98596.59
2022-09-17T01:54:39.201Z,98594.19
2022-09-17T01:57:17.114Z,98589.22
2022-09-17T01:59:51.569Z,98594.97
2022-09-17T02:02:28.010Z,98606.56
2022-09-17T02:05:04.518Z,98596.81
2022-09-17T02:07:42.015Z,98591.56
2022-09-17T02:10:18.696Z,98602.38
2022-09-17T02:12:57.336Z,98585.56
2022-09-17T02:15:32.382Z,98593.59
2022-09-17T02:18:07.977Z,98552.53
2022-09-17T02:20:44.820Z,98579.81
2022-09-17T02:23:19.988Z,98591.53
2022-09-17T02:25:54.584Z,98596.50
2022-09-17T02:28:34.098Z,98578.50
2022-09-17T02:31:04.040Z,98573.91
2022-09-17T02:33:35.878Z,98562.47
2022-09-17T02:36:07.782Z,98571.81
2022-09-17T02:38:42.459Z,98570.00
2022-09-17T02:41:18.399Z,98562.34
2022-09-17T02:44:00.301Z,98563.38
2022-09-17T02:46:53.962Z,98560.09
2022-09-17T02:49:30.998Z,98564.34
2022-09-17T02:52:13.444Z,98553.22
2022-09-17T02:54:50.784Z,98529.34
2022-09-17T02:57:25.548Z,98556.03
2022-09-17T03:00:04.344Z,98563.59
2022-09-17T03:02:42.295Z,98559.13
2022-09-17T03:05:13.212Z,98531.47
2022-09-17T03:07:44.371Z,98534.41
2022-09-17T03:10:14.179Z,98543.56
2022-09-17T03:12:44.455Z,98542.91
2022-09-17T03:15:14.437Z,98527.66
2022-09-17T03:17:44.332Z,98540.41
2022-09-17T03:20:16.146Z,98544.06
2022-09-17T03:22:47.314Z,98539.00
2022-09-17T03:25:17.422Z,98538.84
2022-09-17T03:27:48.332Z,98536.88
2022-09-17T03:30:19.792Z,98540.06
2022-09-17T03:32:49.596Z,98538.53
2022-09-17T03:35:19.436Z,98537.06
2022-09-17T03:37:50.580Z,98532.94
2022-09-17T03:40:21.849Z,98533.19
2022-09-17T03:42:51.663Z,98536.06
2022-09-17T03:45:39.576Z,98532.84
2022-09-17T03:48:09.253Z,98523.19
2022-09-17T03:50:39.027Z,98520.47
2022-09-17T03:53:11.271Z,98510.75
2022-09-17T03:55:41.447Z,98518.47
2022-09-17T03:58:12.257Z,98511.94
2022-09-17T04:00:43.557Z,98497.91
2022-09-17T04:03:13.311Z,98504.75
2022-09-17T04:05:43.140Z,98494.94
2022-09-17T04:08:14.207Z,98493.41
2022-09-17T04:10:44.771Z,98488.75
2022-09-17T04:13:15.891Z,98493.72
2022-09-17T04:15:46.338Z,98491.88
2022-09-17T04:18:16.348Z,98482.22
2022-09-17T04:20:46.308Z,98479.22
2022-09-17T04:23:17.513Z,98482.81
2022-09-17T04:25:47.504Z,98471.34
2022-09-17T04:28:17.916Z,98465.09
2022-09-17T04:30:49.196Z,98453.41
2022-09-17T04:33:19.078Z,98464.25
2022-09-17T04:35:49.386Z,98477.84
2022-09-17T04:38:22.216Z,98478.00
2022-09-17T04:40:52.078Z,98473.88
2022-09-17T04:43:21.999Z,98473.88
2022-09-17T04:45:52.037Z,98479.84
2022-09-17T04:48:21.926Z,98488.00
2022-09-17T04:50:51.788Z,98495.56
2022-09-17T04:53:23.229Z,98497.13
2022-09-17T04:55:53.419Z,98503.59
2022-09-17T04:58:23.392Z,98494.06
2022-09-17T05:00:53.353Z,98489.03
2022-09-17T05:03:23.185Z,98481.19
2022-09-17T05:05:53.007Z,98480.69
2022-09-17T05:08:25.360Z,98477.03
2022-09-17T05:10:55.147Z,98484.47
2022-09-17T05:13:24.949Z,98477.03
2022-09-17T05:15:56.593Z,98463.19
2022-09-17T05:18:26.684Z,98468.50
2022-09-17T05:20:56.377Z,98474.56
2022-09-17T05:23:27.692Z,98464.13
2022-09-17T05:25:59.449Z,98462.97
2022-09-17T05:28:29.929Z,98467.78
2022-09-17T05:31:01.969Z,98458.41
2022-09-17T05:33:32.027Z,98451.53
2022-09-17T05:36:02.162Z,98440.59
2022-09-17T05:38:33.455Z,98444.25
2022-09-17T05:41:06.415Z,98434.78
2022-09-17T05:43:36.744Z,98434.53
2022-09-17T05:46:07.141Z,98432.22
2022-09-17T05:48:37.050Z,98444.88
2022-09-17T05:51:07.062Z,98454.50
2022-09-17T05:53:38.282Z,98463.72
2022-09-17T05:56:09.760Z,98452.19
2022-09-17T05:58:39.507Z,98463.63
2022-09-17T06:01:16.013Z,98456.16
2022-09-17T06:03:46.053Z,98455.97
2022-09-17T06:06:15.913Z,98462.16
2022-09-17T06:08:47.113Z,98453.34
2022-09-17T06:11:16.802Z,98462.59
2022-09-17T06:13:46.540Z,98463.59
2022-09-17T06:16:16.660Z,98459.78
2022-09-17T06:18:46.573Z,98453.28
2022-09-17T06:21:17.328Z,98446.91
2022-09-17T06:23:48.996Z,98458.38
2022-09-17T06:26:19.383Z,98468.78
2022-09-17T06:28:49.253Z,98478.78
2022-09-17T06:31:19.134Z,98487.78
2022-09-17T06:33:49.374Z,98492.38
2022-09-17T06:36:19.391Z,98497.78
2022-09-17T06:38:50.824Z,98510.22
2022-09-17T06:41:20.626Z,98515.38
2022-09-17T06:43:54.141Z,98515.28
2022-09-17T06:46:24.118Z,98511.31
2022-09-17T06:48:54.284Z,98515.84
2022-09-17T06:51:24.509Z,98514.84
2022-09-17T06:53:55.961Z,98520.94
2022-09-17T06:56:25.952Z,98513.47
2022-09-17T06:58:55.799Z,98519.06
2022-09-17T07:01:25.665Z,98523.88
2022-09-17T07:03:55.490Z,98526.66
2022-09-17T07:06:25.692Z,98533.38
2022-09-17T07:08:57.036Z,98539.22
2022-09-17T07:11:27.198Z,98542.13
2022-09-17T07:13:57.851Z,98544.25
2022-09-17T07:16:28.186Z,98545.06
2022-09-17T07:18:58.313Z,98535.88
2022-09-17T07:21:28.387Z,98541.75
2022-09-17T07:23:59.963Z,98534.34
